Time;durP1;ratioP1;P1;durP2;ratioP2;P2;SDS_P1;SDS_P2;PMS_P1;PMS_P2;Temp;Humidity;BMP_temperature;BMP_pressure;BME280_temperature;BME280_humidity;BME280_pressure;Samples;Min_cycle;Max_cycle;Signal;HPM_P1;HPM_P2
2023/05/27 00:00:06;;;;;;;5.78;3.53;;;;;;;15.41;99.89;92850.50;4935129;29;20028;-77
2023/05/27 00:02:32;;;;;;;7.03;3.70;;;;;;;15.35;100.00;92850.94;4936354;29;20646;-77
2023/05/27 00:04:57;;;;;;;8.70;4.20;;;;;;;15.31;100.00;92850.00;4926578;29;20040;-78
2023/05/27 00:07:23;;;;;;;8.68;3.58;;;;;;;15.25;100.00;92853.88;4925585;29;20056;-77
2023/05/27 00:09:48;;;;;;;10.43;3.92;;;;;;;15.23;100.00;92854.19;4931412;29;20031;-77
2023/05/27 00:12:15;;;;;;;8.02;3.80;;;;;;;15.17;100.00;92853.53;4928916;29;20039;-77
2023/05/27 00:14:40;;;;;;;9.18;3.72;;;;;;;15.15;100.00;92860.19;4931011;29;20043;-77
2023/05/27 00:17:08;;;;;;;6.53;3.70;;;;;;;15.14;100.00;92851.50;4928934;29;20386;-77
2023/05/27 00:19:34;;;;;;;8.40;4.50;;;;;;;15.14;100.00;92850.72;4933856;29;20054;-77
2023/05/27 00:22:00;;;;;;;11.50;4.43;;;;;;;15.12;100.00;92853.66;4930002;29;20040;-77
2023/05/27 00:24:25;;;;;;;7.93;4.07;;;;;;;15.11;100.00;92849.50;4935309;29;20042;-77
2023/05/27 00:26:51;;;;;;;8.05;3.60;;;;;;;15.10;100.00;92847.16;4931030;29;20110;-77
2023/05/27 00:29:17;;;;;;;8.23;4.15;;;;;;;15.09;100.00;92856.91;4925607;29;20083;-77
2023/05/27 00:31:42;;;;;;;7.65;4.18;;;;;;;15.07;100.00;92847.75;4935334;29;20032;-77
2023/05/27 00:34:08;;;;;;;11.68;4.13;;;;;;;15.07;100.00;92848.53;4950435;28;20087;-77
2023/05/27 00:36:35;;;;;;;9.25;4.30;;;;;;;15.06;100.00;92857.50;4934398;29;20048;-77
2023/05/27 00:39:01;;;;;;;6.03;3.55;;;;;;;15.03;100.00;92855.50;4929465;29;20063;-76
2023/05/27 00:41:26;;;;;;;8.68;4.28;;;;;;;15.03;100.00;92860.00;4930099;29;20035;-77
2023/05/27 00:43:53;;;;;;;9.25;4.15;;;;;;;14.99;100.00;92867.72;4930579;29;20044;-77
2023/05/27 00:46:19;;;;;;;8.18;3.58;;;;;;;14.98;100.00;92861.69;4925300;29;20660;-77
2023/05/27 00:48:47;;;;;;;8.57;4.00;;;;;;;14.95;100.00;92854.38;4934083;29;20044;-77
2023/05/27 00:51:12;;;;;;;7.90;3.90;;;;;;;14.94;100.00;92862.59;4933983;29;20039;-77
2023/05/27 00:53:43;;;;;;;7.97;4.00;;;;;;;14.90;100.00;92856.38;4929675;29;20062;-77
2023/05/27 00:56:11;;;;;;;8.07;4.10;;;;;;;14.90;100.00;92864.28;4930947;29;20043;-76
2023/05/27 00:58:37;;;;;;;11.23;4.78;;;;;;;14.90;100.00;92864.28;4944137;29;20032;-76
2023/05/27 01:01:04;;;;;;;8.63;3.97;;;;;;;14.88;100.00;92861.97;4923822;29;20091;-76
2023/05/27 01:03:34;;;;;;;5.75;3.80;;;;;;;14.88;100.00;92855.88;4930664;29;20533;-76
2023/05/27 01:06:36;;;;;;;8.85;4.13;;;;;;;14.87;100.00;92860.38;4929428;29;20413;-76
2023/05/27 01:09:10;;;;;;;6.57;3.95;;;;;;;14.86;100.00;92855.41;4928291;29;20111;-77
2023/05/27 01:11:49;;;;;;;6.55;3.88;;;;;;;14.82;100.00;92852.63;4929584;29;20560;-76
2023/05/27 01:14:17;;;;;;;6.72;3.65;;;;;;;14.80;100.00;92854.00;4942000;28;20110;-77
2023/05/27 01:16:46;;;;;;;7.00;4.30;;;;;;;14.78;100.00;92846.41;4947392;29;20036;-77
2023/05/27 01:19:16;;;;;;;6.15;3.80;;;;;;;14.76;99.75;92845.91;4930376;29;20044;-76
2023/05/27 01:21:50;;;;;;;7.32;3.70;;;;;;;14.75;97.85;92860.19;4932584;29;20144;-77
2023/05/27 01:24:16;;;;;;;6.57;3.72;;;;;;;14.69;96.70;92854.25;4929946;29;20043;-77
2023/05/27 01:26:42;;;;;;;10.20;3.95;;;;;;;14.65;96.41;92853.28;4927478;29;20062;-77
2023/05/27 01:29:08;;;;;;;10.35;3.97;;;;;;;14.62;96.36;92856.53;4916786;29;20486;-76
2023/05/27 01:31:47;;;;;;;8.85;3.97;;;;;;;14.58;96.18;92850.31;4933665;29;20051;-77
2023/05/27 01:34:18;;;;;;;5.88;3.78;;;;;;;14.60;94.96;92856.06;4947724;28;20028;-76
2023/05/27 01:36:48;;;;;;;6.63;4.00;;;;;;;14.61;95.24;92856.84;4933451;29;20035;-77
2023/05/27 01:39:15;;;;;;;6.88;3.67;;;;;;;14.59;95.53;92851.88;4931741;29;20054;-77
2023/05/27 01:41:43;;;;;;;8.18;4.22;;;;;;;14.58;95.27;92860.84;4929616;29;20122;-76
2023/05/27 01:44:17;;;;;;;9.43;3.63;;;;;;;14.65;90.98;92858.56;4931764;29;20031;-75
2023/05/27 01:46:43;;;;;;;8.50;3.85;;;;;;;14.69;90.83;92846.34;4946696;29;20082;-76
2023/05/27 01:49:09;;;;;;;5.75;3.58;;;;;;;14.69;91.51;92851.63;4932135;29;20034;-76
2023/05/27 01:51:36;;;;;;;7.53;3.90;;;;;;;14.64;92.07;92848.34;4932266;29;20049;-76
2023/05/27 01:54:02;;;;;;;7.20;3.47;;;;;;;14.61;92.21;92860.25;4947615;28;20063;-76
2023/05/27 01:56:29;;;;;;;6.90;4.00;;;;;;;14.59;92.50;92859.78;4931160;29;20114;-76
2023/05/27 01:58:55;;;;;;;9.73;3.70;;;;;;;14.53;92.91;92863.59;4924443;29;20047;-76
2023/05/27 02:01:23;;;;;;;9.73;4.18;;;;;;;14.52;93.87;92867.28;4931704;29;20062;-76
2023/05/27 02:03:51;;;;;;;8.23;3.90;;;;;;;14.48;95.00;92867.13;4947790;28;20036;-76
2023/05/27 02:06:17;;;;;;;6.43;3.70;;;;;;;14.47;96.16;92867.41;4945792;29;20039;-76
2023/05/27 02:08:42;;;;;;;8.32;4.10;;;;;;;14.45;96.25;92862.44;4939477;29;20059;-76
2023/05/27 02:11:08;;;;;;;6.90;3.95;;;;;;;14.44;96.15;92868.03;4946941;29;20043;-76
2023/05/27 02:13:36;;;;;;;6.68;3.80;;;;;;;14.39;96.40;92863.66;4928176;29;20032;-76
2023/05/27 02:16:02;;;;;;;7.38;4.00;;;;;;;14.35;96.42;92868.75;4935616;29;20031;-77
2023/05/27 02:18:27;;;;;;;9.13;3.95;;;;;;;14.33;95.86;92865.63;4951558;29;20077;-77
2023/05/27 02:20:53;;;;;;;8.68;4.00;;;;;;;14.32;95.96;92865.91;4935671;29;20050;-77
2023/05/27 02:23:19;;;;;;;7.20;3.63;;;;;;;14.31;96.11;92865.13;4936815;29;20470;-77
2023/05/27 02:25:44;;;;;;;6.20;3.83;;;;;;;14.31;97.04;92861.75;4937147;29;20041;-77
2023/05/27 02:28:10;;;;;;;7.65;3.70;;;;;;;14.30;96.94;92865.47;4936893;29;20521;-77
2023/05/27 02:30:35;;;;;;;7.30;4.00;;;;;;;14.28;96.84;92864.97;4952167;29;20047;-76
2023/05/27 02:33:01;;;;;;;9.60;4.15;;;;;;;14.27;96.80;92871.31;4932842;29;20034;-77
2023/05/27 02:35:27;;;;;;;7.30;3.70;;;;;;;14.27;96.44;92872.06;4931979;29;20030;-77
2023/05/27 02:37:53;;;;;;;6.35;3.95;;;;;;;14.28;96.60;92863.13;4932348;29;20032;-77
2023/05/27 02:40:27;;;;;;;9.82;4.00;;;;;;;14.31;96.91;92869.63;4935737;29;20039;-77
2023/05/27 02:42:55;;;;;;;11.10;4.10;;;;;;;14.32;97.41;92868.53;4946529;29;20536;-77
2023/05/27 02:45:21;;;;;;;6.35;3.92;;;;;;;14.30;97.35;92874.13;4936023;29;20082;-77
2023/05/27 02:47:47;;;;;;;9.07;4.30;;;;;;;14.32;97.96;92869.34;4932919;29;20965;-77
2023/05/27 02:50:12;;;;;;;7.75;3.85;;;;;;;14.33;98.89;92870.88;4937715;29;20102;-77
2023/05/27 02:52:38;;;;;;;10.60;4.30;;;;;;;14.34;99.05;92871.66;4936371;29;20052;-77
2023/05/27 02:55:05;;;;;;;8.55;4.47;;;;;;;14.34;99.53;92872.47;4952406;28;20078;-77
2023/05/27 02:57:31;;;;;;;7.88;3.95;;;;;;;14.36;100.00;92874.78;4951030;29;20083;-77
2023/05/27 02:59:57;;;;;;;7.63;4.13;;;;;;;14.36;100.00;92874.78;4937146;29;20656;-77
2023/05/27 03:02:23;;;;;;;7.05;4.22;;;;;;;14.35;100.00;92873.22;4935777;29;20074;-77
2023/05/27 03:04:48;;;;;;;7.32;4.25;;;;;;;14.32;100.00;92879.88;4936884;29;20509;-77
2023/05/27 03:07:15;;;;;;;8.73;4.75;;;;;;;14.33;100.00;92883.28;4935907;29;20036;-77
2023/05/27 03:09:40;;;;;;;10.63;4.35;;;;;;;14.33;100.00;92881.41;4936118;29;20054;-77
2023/05/27 03:12:06;;;;;;;7.55;4.40;;;;;;;14.33;100.00;92878.78;4933849;29;20172;-77
2023/05/27 03:14:32;;;;;;;8.07;4.70;;;;;;;14.32;100.00;92889.63;4936129;29;20063;-77
2023/05/27 03:16:58;;;;;;;8.07;4.50;;;;;;;14.31;100.00;92888.84;4932588;29;20031;-78
2023/05/27 03:19:24;;;;;;;8.23;4.22;;;;;;;14.31;100.00;92894.09;4918950;29;20960;-78
2023/05/27 03:21:50;;;;;;;9.10;5.00;;;;;;;14.32;100.00;92890.41;4928108;29;20031;-78
2023/05/27 03:24:16;;;;;;;9.73;4.65;;;;;;;14.34;100.00;92887.47;4928223;29;20050;-78
2023/05/27 03:26:42;;;;;;;12.30;4.50;;;;;;;14.35;100.00;92889.03;4949966;29;20054;-78
2023/05/27 03:29:09;;;;;;;9.20;4.80;;;;;;;14.36;100.00;92888.75;4911161;29;20036;-77
2023/05/27 03:31:34;;;;;;;9.45;5.05;;;;;;;14.38;100.00;92889.19;4928450;29;20446;-78
2023/05/27 03:34:05;;;;;;;13.57;5.72;;;;;;;14.37;100.00;92886.88;4935638;29;20039;-78
2023/05/27 03:36:30;;;;;;;11.05;5.10;;;;;;;14.38;100.00;92891.06;4936601;29;20060;-78
2023/05/27 03:38:56;;;;;;;12.43;5.18;;;;;;;14.37;100.00;92894.78;4932625;29;20066;-78
2023/05/27 03:41:24;;;;;;;16.70;4.90;;;;;;;14.35;100.00;92896.94;4909548;29;20039;-77
2023/05/27 03:43:49;;;;;;;9.00;4.50;;;;;;;14.33;100.00;92899.84;4935107;29;20518;-77
2023/05/27 03:46:17;;;;;;;9.70;4.85;;;;;;;14.32;100.00;92900.16;4935285;29;20138;-77
2023/05/27 03:48:42;;;;;;;8.68;5.07;;;;;;;14.30;100.00;92892.56;4936723;29;20044;-77
2023/05/27 03:51:08;;;;;;;11.73;4.40;;;;;;;14.32;100.00;92895.69;4936529;29;20115;-78
2023/05/27 03:53:33;;;;;;;12.32;5.20;;;;;;;14.34;100.00;92890.91;4932895;29;20070;-78
2023/05/27 03:55:59;;;;;;;7.88;3.90;;;;;;;14.35;100.00;92889.03;4937636;29;20040;-78
2023/05/27 03:58:25;;;;;;;9.77;4.90;;;;;;;14.38;100.00;92891.06;4951248;29;20106;-78
2023/05/27 04:00:51;;;;;;;8.52;4.75;;;;;;;14.41;100.00;92897.56;4928883;29;20050;-78
2023/05/27 04:03:18;;;;;;;11.07;5.03;;;;;;;14.44;100.00;92889.88;4933239;29;20043;-77
2023/05/27 04:05:43;;;;;;;9.02;4.95;;;;;;;14.46;100.00;92894.84;4935435;29;20031;-77
2023/05/27 04:08:09;;;;;;;10.57;4.90;;;;;;;14.48;100.00;92893.47;4936283;29;20117;-78
2023/05/27 04:10:34;;;;;;;9.60;5.35;;;;;;;14.50;100.00;92893.94;4950766;29;20035;-78
2023/05/27 04:13:00;;;;;;;9.27;5.43;;;;;;;14.53;100.00;92900.47;4931753;29;20040;-78
2023/05/27 04:15:26;;;;;;;8.88;5.40;;;;;;;14.56;100.00;92902.53;4932029;29;20490;-77
2023/05/27 04:17:51;;;;;;;10.38;5.75;;;;;;;14.58;100.00;92897.72;4935078;29;20032;-77
2023/05/27 04:20:17;;;;;;;14.43;6.57;;;;;;;14.62;100.00;92908.47;4950758;29;20137;-77
2023/05/27 04:22:46;;;;;;;15.02;6.28;;;;;;;14.64;100.00;92901.81;4932203;29;20059;-78
2023/05/27 04:25:11;;;;;;;12.02;6.80;;;;;;;14.66;100.00;92907.56;4935964;29;20031;-78
2023/05/27 04:27:57;;;;;;;15.32;7.38;;;;;;;14.68;100.00;92908.03;4926653;29;20047;-77
2023/05/27 04:30:23;;;;;;;15.13;8.73;;;;;;;14.71;100.00;92904.78;4917332;29;20036;-77
2023/05/27 04:32:49;;;;;;;16.25;8.40;;;;;;;14.78;100.00;92909.63;4933818;29;20028;-78
2023/05/27 04:35:15;;;;;;;19.58;8.20;;;;;;;14.85;100.00;92917.13;4933900;29;20040;-78
2023/05/27 04:37:40;;;;;;;19.55;8.48;;;;;;;14.89;100.00;92918.84;4950189;28;20035;-77
2023/05/27 04:40:08;;;;;;;16.02;8.82;;;;;;;14.93;100.00;92911.91;4930614;29;20035;-78
2023/05/27 04:42:45;;;;;;;21.23;9.38;;;;;;;15.01;100.00;92922.78;4928823;29;20038;-78
2023/05/27 04:45:12;;;;;;;19.85;9.48;;;;;;;15.07;100.00;92918.94;4933725;29;20048;-78
2023/05/27 04:47:38;;;;;;;19.73;8.60;;;;;;;15.14;100.00;92914.00;4950375;29;20042;-78
2023/05/27 04:50:04;;;;;;;15.45;8.60;;;;;;;15.19;100.00;92922.56;4935098;29;20040;-78
2023/05/27 04:52:37;;;;;;;17.90;8.40;;;;;;;15.26;100.00;92921.34;4935622;29;20396;-77
2023/05/27 04:55:04;;;;;;;22.80;9.50;;;;;;;15.33;100.00;92916.41;4949727;28;20042;-78
2023/05/27 04:57:36;;;;;;;17.15;8.55;;;;;;;15.43;100.00;92921.44;4933527;29;20118;-78
2023/05/27 05:02:34;;;;;;;15.45;8.07;;;;;;;15.64;100.00;92921.63;4933924;29;20133;-78
2023/05/27 05:05:08;;;;;;;19.52;8.10;;;;;;;15.73;100.00;92929.59;4948625;28;20039;-77
2023/05/27 05:07:37;;;;;;;14.85;9.00;;;;;;;15.84;100.00;92930.88;4934155;29;20130;-77
2023/05/27 05:10:12;;;;;;;10.77;6.15;;;;;;;15.98;100.00;92934.16;4950208;29;20032;-76
2023/05/27 05:12:49;;;;;;;8.45;4.70;;;;;;;16.11;100.00;92943.03;4932306;29;20115;-77
2023/05/27 05:15:15;;;;;;;9.35;4.28;;;;;;;16.08;100.00;92950.81;4916736;29;20579;-76
2023/05/27 05:17:41;;;;;;;9.93;5.20;;;;;;;15.92;100.00;92943.34;4946436;29;20036;-78
2023/05/27 05:20:08;;;;;;;8.25;4.55;;;;;;;15.87;100.00;92953.25;4932373;29;20046;-77
2023/05/27 05:22:35;;;;;;;12.07;4.80;;;;;;;15.90;100.00;92963.22;4935370;29;20083;-79
2023/05/27 05:25:01;;;;;;;11.15;5.03;;;;;;;16.03;100.00;92965.72;4916895;29;20063;-77
2023/05/27 05:27:33;;;;;;;9.02;5.00;;;;;;;16.12;100.00;92965.75;4949614;29;20050;-77
2023/05/27 05:29:58;;;;;;;10.55;5.05;;;;;;;16.20;100.00;92975.53;4935610;29;20043;-78
2023/05/27 05:32:24;;;;;;;11.95;5.00;;;;;;;16.51;100.00;92979.13;4934736;29;20490;-78
2023/05/27 05:34:50;;;;;;;10.35;5.78;;;;;;;16.47;100.00;92978.97;4916576;29;20505;-78
2023/05/27 05:37:17;;;;;;;11.35;5.40;;;;;;;16.43;100.00;92984.09;4933776;29;20055;-78
2023/05/27 05:39:45;;;;;;;11.15;5.75;;;;;;;16.48;100.00;92982.38;4934353;29;20198;-78
2023/05/27 05:42:11;;;;;;;12.20;6.50;;;;;;;16.45;100.00;92981.91;4934374;29;20111;-78
2023/05/27 05:44:36;;;;;;;11.95;7.68;;;;;;;16.66;100.00;92981.28;4934194;29;20079;-78
2023/05/27 05:47:02;;;;;;;10.73;7.22;;;;;;;16.52;100.00;92976.16;4945133;28;20044;-78
2023/05/27 05:49:33;;;;;;;13.00;7.45;;;;;;;16.35;100.00;92981.47;4932131;29;20040;-78
2023/05/27 05:51:59;;;;;;;12.15;7.45;;;;;;;16.36;100.00;92981.13;4947797;29;20519;-78
2023/05/27 05:54:25;;;;;;;16.05;7.40;;;;;;;16.38;100.00;92984.25;4932917;29;20719;-77
2023/05/27 05:56:54;;;;;;;13.70;7.78;;;;;;;16.42;100.00;92979.13;4929708;29;20043;-79
2023/05/27 05:59:20;;;;;;;15.05;8.23;;;;;;;16.43;100.00;92984.09;4930677;29;20146;-78
2023/05/27 06:01:46;;;;;;;11.85;7.72;;;;;;;16.45;100.00;92992.47;4937565;29;20030;-78
2023/05/27 06:04:12;;;;;;;12.57;8.07;;;;;;;16.49;100.00;92994.53;4935367;29;20063;-78
2023/05/27 06:06:41;;;;;;;14.88;8.32;;;;;;;16.48;100.00;92990.31;4928734;29;20036;-79
2023/05/27 06:09:21;;;;;;;15.95;8.13;;;;;;;16.48;100.00;92995.59;4936267;29;20556;-77
2023/05/27 06:11:47;;;;;;;14.55;8.48;;;;;;;16.41;100.00;92994.22;4918663;29;20032;-78
2023/05/27 06:14:13;;;;;;;13.32;7.90;;;;;;;16.40;100.00;92995.28;4932577;29;20123;-77
2023/05/27 06:16:39;;;;;;;14.27;10.82;;;;;;;16.43;100.00;92994.66;4917422;29;20035;-78
2023/05/27 06:19:06;;;;;;;16.42;8.85;;;;;;;16.43;100.00;92989.38;4935307;29;20102;-78
2023/05/27 06:21:32;;;;;;;16.45;9.55;;;;;;;16.27;100.00;92992.78;4934326;29;20484;-78
2023/05/27 06:24:19;;;;;;;14.27;8.80;;;;;;;16.22;100.00;92996.34;4922918;29;20052;-77
2023/05/27 06:26:50;;;;;;;14.90;8.98;;;;;;;16.19;100.00;92999.63;4948953;29;20067;-78
2023/05/27 06:29:18;;;;;;;14.20;8.90;;;;;;;16.16;100.00;92994.94;4927903;29;20044;-78
2023/05/27 06:31:43;;;;;;;15.05;8.65;;;;;;;16.16;100.00;92997.56;4946045;29;20028;-77
2023/05/27 06:34:09;;;;;;;15.93;8.98;;;;;;;16.18;100.00;92996.19;4924517;29;20043;-78
2023/05/27 06:36:35;;;;;;;12.88;8.27;;;;;;;16.17;100.00;92999.16;4939297;29;20054;-78
2023/05/27 06:39:01;;;;;;;16.15;8.48;;;;;;;16.27;100.00;92993.56;4939476;29;20027;-78
2023/05/27 06:41:27;;;;;;;15.18;7.95;;;;;;;16.33;100.00;92994.19;4937237;29;20040;-78
2023/05/27 06:44:22;;;;;;;15.20;8.98;;;;;;;16.27;100.00;92990.91;4885103;29;20061;-78
2023/05/27 06:47:08;;;;;;;14.45;8.05;;;;;;;16.27;100.00;92993.56;4931398;29;20082;-77
2023/05/27 06:49:34;;;;;;;14.60;8.43;;;;;;;16.34;100.00;92993.88;4936804;29;20446;-77
2023/05/27 06:52:03;;;;;;;13.32;8.00;;;;;;;16.48;100.00;92999.00;4952786;29;20059;-77
2023/05/27 06:54:33;;;;;;;15.05;8.05;;;;;;;16.48;100.00;92999.00;4935729;29;20494;-77
2023/05/27 06:57:19;;;;;;;13.48;8.05;;;;;;;16.57;100.00;92999.03;4936341;29;20074;-77
2023/05/27 06:59:59;;;;;;;17.02;8.27;;;;;;;16.59;100.00;92996.84;4936297;29;20040;-77
2023/05/27 07:02:26;;;;;;;15.57;8.05;;;;;;;16.59;100.00;92996.84;4937384;29;20090;-77
2023/05/27 07:04:53;;;;;;;15.07;7.95;;;;;;;16.45;100.00;92999.63;4933921;29;20526;-77
2023/05/27 07:07:19;;;;;;;14.82;8.10;;;;;;;16.60;100.00;92998.41;4937711;29;20106;-77
2023/05/27 07:09:45;;;;;;;11.45;8.10;;;;;;;16.72;100.00;93003.84;4938484;29;20059;-76
2023/05/27 07:12:11;;;;;;;12.25;7.18;;;;;;;16.81;100.00;93004.66;4939115;29;20042;-79
2023/05/27 07:14:46;;;;;;;11.70;7.75;;;;;;;16.95;100.00;93003.72;4938317;29;20040;-79
2023/05/27 07:17:12;;;;;;;14.98;7.97;;;;;;;17.33;100.00;93008.31;4940428;29;20538;-78
2023/05/27 07:19:38;;;;;;;16.42;7.15;;;;;;;17.43;100.00;93002.72;4938926;29;20039;-77
2023/05/27 07:22:08;;;;;;;10.38;6.95;;;;;;;17.65;100.00;93005.13;4937104;29;20048;-77
2023/05/27 07:24:34;;;;;;;12.55;7.47;;;;;;;17.85;100.00;93002.88;4938978;29;20127;-77
2023/05/27 07:27:00;;;;;;;12.98;7.47;;;;;;;18.10;100.00;93002.00;4937512;29;20551;-77
2023/05/27 07:29:28;;;;;;;14.85;7.68;;;;;;;18.23;100.00;92997.56;4937207;29;20035;-77
2023/05/27 07:31:54;;;;;;;14.25;7.20;;;;;;;18.39;97.38;92997.75;4937762;29;20055;-77
2023/05/27 07:34:24;;;;;;;14.35;7.10;;;;;;;18.76;95.44;93000.63;4936605;29;20126;-77
2023/05/27 07:36:50;;;;;;;13.63;6.93;;;;;;;18.47;96.42;93002.25;4933643;29;20043;-77
2023/05/27 07:39:16;;;;;;;11.10;6.63;;;;;;;18.83;99.31;92998.25;4916458;29;20051;-77
2023/05/27 07:41:42;;;;;;;12.32;7.38;;;;;;;19.28;91.23;93005.50;4933435;29;20050;-77
2023/05/27 07:44:08;;;;;;;12.32;6.90;;;;;;;19.16;90.86;93002.81;4931118;29;20133;-76
2023/05/27 07:46:34;;;;;;;10.98;7.03;;;;;;;18.96;94.31;92993.81;4931667;29;20099;-76
2023/05/27 07:49:00;;;;;;;10.20;6.45;;;;;;;19.05;93.21;92993.69;4916977;29;20032;-77
2023/05/27 07:51:26;;;;;;;10.52;6.53;;;;;;;18.90;94.87;92993.22;4944729;29;20127;-77
2023/05/27 07:53:52;;;;;;;11.50;6.43;;;;;;;18.87;92.36;92988.56;4903425;29;20140;-77
2023/05/27 07:56:19;;;;;;;12.70;7.03;;;;;;;18.74;96.35;92994.88;4933786;29;20067;-77
2023/05/27 07:58:45;;;;;;;12.23;7.35;;;;;;;18.47;94.65;92993.53;4934282;29;20451;-77
2023/05/27 08:01:12;;;;;;;13.20;6.97;;;;;;;18.34;97.86;92987.34;4926417;29;20050;-77
2023/05/27 08:03:44;;;;;;;11.20;7.00;;;;;;;18.38;100.00;92985.63;4926992;29;20048;-77
2023/05/27 08:06:12;;;;;;;13.32;7.57;;;;;;;18.27;99.73;92979.91;4934007;29;20134;-77
2023/05/27 08:08:56;;;;;;;11.93;7.55;;;;;;;18.12;99.71;92977.81;4934920;29;20038;-77
2023/05/27 08:11:33;;;;;;;13.05;7.32;;;;;;;18.22;100.00;92982.00;4928312;29;20040;-77
2023/05/27 08:14:20;;;;;;;13.45;7.55;;;;;;;18.33;100.00;92982.38;4926261;29;20711;-76
2023/05/27 08:17:15;;;;;;;13.45;8.07;;;;;;;18.71;96.05;92982.25;4899164;29;20057;-75
2023/05/27 08:19:54;;;;;;;11.02;7.50;;;;;;;18.79;96.19;92976.13;4933856;29;20039;-76
2023/05/27 08:22:41;;;;;;;12.63;7.22;;;;;;;18.70;99.81;92980.72;4926311;29;20450;-77
2023/05/27 08:25:25;;;;;;;12.10;7.90;;;;;;;18.67;97.39;92979.50;4928168;29;20110;-76
2023/05/27 08:28:10;;;;;;;13.05;7.40;;;;;;;18.67;97.25;92976.84;4933008;29;20910;-77
2023/05/27 08:30:48;;;;;;;13.88;9.02;;;;;;;18.56;97.06;92972.25;4929124;29;20042;-77
2023/05/27 08:33:36;;;;;;;13.73;7.80;;;;;;;18.59;97.80;92971.59;4922547;29;20040;-77
2023/05/27 08:36:02;;;;;;;14.05;8.48;;;;;;;18.36;98.31;92971.91;4952059;29;20036;-77
2023/05/27 08:38:28;;;;;;;14.55;8.73;;;;;;;18.46;96.91;92968.09;4932435;29;20036;-78
2023/05/27 08:41:05;;;;;;;14.25;8.43;;;;;;;18.43;100.00;92963.44;4925730;29;20525;-77
2023/05/27 08:43:33;;;;;;;15.15;9.65;;;;;;;18.48;100.00;92966.66;4920190;29;20095;-77
2023/05/27 08:46:01;;;;;;;15.00;8.45;;;;;;;18.73;100.00;92958.84;4928883;29;20486;-77
2023/05/27 08:48:27;;;;;;;12.32;8.00;;;;;;;18.93;97.58;92950.09;4950925;29;20062;-77
2023/05/27 08:50:52;;;;;;;13.48;8.02;;;;;;;18.93;98.12;92960.72;4937119;29;20063;-77
2023/05/27 08:53:19;;;;;;;13.15;7.88;;;;;;;18.93;96.82;92949.34;4935369;29;20071;-78
2023/05/27 08:55:48;;;;;;;17.25;9.02;;;;;;;19.04;96.21;92950.47;4947953;29;20035;-77
2023/05/27 08:58:16;;;;;;;12.32;8.23;;;;;;;19.05;96.78;92948.59;4937943;29;20043;-77
2023/05/27 09:00:46;;;;;;;19.00;8.93;;;;;;;19.04;96.05;92955.78;4927809;29;20046;-77
2023/05/27 09:03:23;;;;;;;13.95;8.50;;;;;;;19.11;96.14;92949.94;4935447;29;20047;-77
2023/05/27 09:05:50;;;;;;;15.65;9.35;;;;;;;19.34;92.61;92951.13;4951206;29;20040;-77
2023/05/27 09:08:15;;;;;;;13.00;8.30;;;;;;;19.46;93.23;92957.56;4931141;29;20046;-77
2023/05/27 09:10:42;;;;;;;15.02;8.48;;;;;;;19.42;93.40;92951.34;4933011;29;20082;-77
2023/05/27 09:13:08;;;;;;;13.52;8.60;;;;;;;19.48;95.06;92950.03;4927722;29;20385;-77
2023/05/27 09:15:35;;;;;;;12.70;8.57;;;;;;;19.36;96.38;92945.47;4932527;29;20032;-76
2023/05/27 09:18:02;;;;;;;12.63;8.45;;;;;;;19.46;97.25;92944.28;4906414;29;20040;-77
2023/05/27 09:20:29;;;;;;;15.77;9.10;;;;;;;19.91;91.87;92943.44;4932951;29;20095;-77
2023/05/27 09:23:03;;;;;;;12.80;8.60;;;;;;;20.04;91.06;92945.00;4931513;29;20039;-77
2023/05/27 09:25:29;;;;;;;15.57;9.25;;;;;;;20.09;88.27;92944.75;4933038;29;20035;-77
2023/05/27 09:27:55;;;;;;;16.02;9.50;;;;;;;20.16;88.36;92934.34;4926071;29;20028;-77
2023/05/27 09:30:22;;;;;;;15.05;8.68;;;;;;;20.22;88.52;92944.72;4921304;29;20051;-77
2023/05/27 09:32:49;;;;;;;13.90;9.13;;;;;;;20.16;86.91;92938.88;4934476;29;20036;-77
2023/05/27 09:35:17;;;;;;;13.90;8.65;;;;;;;19.86;89.62;92941.78;4927289;29;20438;-77
2023/05/27 09:37:45;;;;;;;17.85;9.48;;;;;;;19.70;88.54;92939.03;4932518;29;20071;-77
2023/05/27 09:40:14;;;;;;;16.13;9.82;;;;;;;19.44;91.93;92926.03;4925439;29;20122;-76
2023/05/27 09:42:41;;;;;;;14.38;9.82;;;;;;;19.22;90.73;92932.50;4927672;29;20043;-77
2023/05/27 09:45:12;;;;;;;15.93;10.20;;;;;;;19.12;93.18;92930.28;4935867;29;20032;-80
2023/05/27 09:47:40;;;;;;;16.23;9.05;;;;;;;19.00;96.56;92927.59;4937469;29;20055;-77
2023/05/27 09:50:09;;;;;;;13.68;9.23;;;;;;;19.25;94.78;92931.88;4932241;29;20043;-75
2023/05/27 09:52:39;;;;;;;16.17;9.23;;;;;;;19.76;92.90;92921.75;4934286;29;20048;-76
2023/05/27 09:55:08;;;;;;;18.60;9.32;;;;;;;19.98;89.61;92919.75;4933564;29;20039;-77
2023/05/27 09:57:35;;;;;;;16.63;8.93;;;;;;;20.47;88.25;92922.31;4934527;29;20039;-78
2023/05/27 10:00:09;;;;;;;12.73;8.70;;;;;;;20.80;87.60;92918.69;4935240;29;20051;-78
2023/05/27 10:02:42;;;;;;;15.82;9.10;;;;;;;20.57;84.17;92924.53;4935829;29;20048;-78
2023/05/27 10:05:10;;;;;;;17.02;10.15;;;;;;;20.73;83.51;92907.84;4934595;29;20090;-75
2023/05/27 10:07:38;;;;;;;15.73;9.02;;;;;;;20.48;88.67;92913.22;4934572;29;20043;-77
2023/05/27 10:10:11;;;;;;;15.73;9.73;;;;;;;20.69;86.67;92914.94;4936406;29;20067;-77
2023/05/27 10:12:41;;;;;;;14.73;8.45;;;;;;;20.54;87.14;92906.56;4938522;29;20062;-77
2023/05/27 10:15:08;;;;;;;14.18;8.68;;;;;;;20.38;88.84;92900.41;4932391;29;20037;-77
2023/05/27 10:17:55;;;;;;;14.00;8.68;;;;;;;20.30;84.93;92907.41;4917720;29;20116;-77
2023/05/27 10:20:34;;;;;;;12.40;8.20;;;;;;;20.52;88.91;92898.16;4931249;29;20532;-77
2023/05/27 10:23:16;;;;;;;13.23;8.43;;;;;;;20.48;84.64;92891.94;4935098;29;20036;-77
2023/05/27 10:25:50;;;;;;;14.45;8.68;;;;;;;19.79;90.47;92887.66;4934754;29;20043;-76
2023/05/27 10:28:35;;;;;;;12.40;7.80;;;;;;;20.05;92.42;92889.97;4936000;29;20558;-77
2023/05/27 10:31:13;;;;;;;15.52;8.43;;;;;;;20.05;90.07;92888.06;4934867;29;20409;-78
2023/05/27 10:33:44;;;;;;;10.35;7.32;;;;;;;19.97;91.95;92875.69;4930766;29;20499;-78
2023/05/27 10:36:12;;;;;;;14.40;9.15;;;;;;;19.88;93.93;92880.34;4935619;29;20050;-77
2023/05/27 10:38:39;;;;;;;15.82;9.10;;;;;;;19.33;95.94;92875.25;4939948;29;20063;-77
2023/05/27 10:41:06;;;;;;;14.48;8.10;;;;;;;19.45;93.62;92873.69;4944179;29;20391;-77
2023/05/27 10:43:33;;;;;;;11.57;8.30;;;;;;;19.76;93.13;92868.63;4943100;29;20047;-78
2023/05/27 10:46:03;;;;;;;15.02;8.68;;;;;;;20.04;88.49;92865.28;4942813;29;20106;-78
2023/05/27 10:48:28;;;;;;;10.50;7.07;;;;;;;19.94;89.30;92868.38;4944732;29;20074;-77
2023/05/27 10:50:57;;;;;;;13.52;8.90;;;;;;;19.71;88.74;92862.78;4928060;29;20401;-78
2023/05/27 10:53:28;;;;;;;15.15;9.00;;;;;;;19.32;91.90;92860.44;4936856;29;20135;-77
2023/05/27 10:55:56;;;;;;;15.13;9.20;;;;;;;19.54;88.60;92861.09;4943060;29;20055;-82
2023/05/27 10:58:22;;;;;;;12.95;8.88;;;;;;;19.62;90.52;92860.22;4932347;29;20086;-80
2023/05/27 11:00:50;;;;;;;11.13;7.22;;;;;;;20.04;89.35;92862.63;4944379;29;20554;-77
2023/05/27 11:03:23;;;;;;;12.80;8.10;;;;;;;19.73;87.78;92869.31;4942615;29;20111;-78
2023/05/27 11:06:01;;;;;;;11.00;6.95;;;;;;;19.96;87.31;92860.84;4939111;29;20095;-78
2023/05/27 11:08:27;;;;;;;12.82;8.25;;;;;;;19.90;85.00;92864.84;4947539;29;20055;-78
2023/05/27 11:11:09;;;;;;;12.35;9.07;;;;;;;20.13;84.85;92857.94;4947324;29;20038;-79
2023/05/27 11:13:36;;;;;;;;;;;;;;;20.14;87.93;92851.50;4949087;29;20048;-79
2023/05/27 11:16:04;;;;;;;12.48;8.57;;;;;;;20.33;84.24;92852.78;4948167;29;19956;-79
2023/05/27 11:18:47;;;;;;;11.80;8.18;;;;;;;20.37;83.02;92848.34;4948366;29;20107;-79
2023/05/27 11:21:17;;;;;;;11.73;6.90;;;;;;;20.25;86.80;92845.75;4925820;29;20067;-78
2023/05/27 11:23:44;;;;;;;13.82;7.63;;;;;;;20.56;83.59;92851.19;4924098;29;20047;-78
2023/05/27 11:26:15;;;;;;;16.13;7.88;;;;;;;20.44;86.55;92845.09;4933225;29;20023;-77
2023/05/27 11:28:50;;;;;;;13.20;7.47;;;;;;;20.32;86.05;92845.94;4942906;29;20047;-78
2023/05/27 11:31:17;;;;;;;12.00;7.30;;;;;;;20.42;84.31;92834.81;4942770;29;20392;-78
2023/05/27 11:33:44;;;;;;;11.95;7.15;;;;;;;20.40;82.90;92837.03;4927448;29;20027;-78